createdAt,value
2022-10-20T00:00:49.116Z,0.58
2022-10-20T00:04:46.784Z,0.58
2022-10-20T00:08:47.018Z,0.58
2022-10-20T00:12:47.239Z,0.58
2022-10-20T00:16:47.068Z,0.58
2022-10-20T00:20:47.154Z,0.58
2022-10-20T00:24:46.432Z,0.58
2022-10-20T00:28:47.125Z,0.58
2022-10-20T00:32:46.614Z,0.58
2022-10-20T00:36:50.368Z,0.58
2022-10-20T00:40:46.663Z,0.58
2022-10-20T00:44:47.165Z,0.58
2022-10-20T00:48:46.535Z,0.58
2022-10-20T00:52:47.707Z,0.58
2022-10-20T00:56:47.158Z,0.58
2022-10-20T01:00:52.150Z,0.58
2022-10-20T01:04:47.267Z,0.58
2022-10-20T01:08:46.543Z,0.58
2022-10-20T01:12:46.321Z,0.58
2022-10-20T01:16:46.784Z,0.58
2022-10-20T01:20:46.743Z,0.58
2022-10-20T01:24:46.347Z,0.58
2022-10-20T01:28:46.273Z,0.58
2022-10-20T01:32:47.204Z,0.58
2022-10-20T01:36:46.721Z,0.58
2022-10-20T01:40:46.481Z,0.58
2022-10-20T01:44:46.666Z,0.58
2022-10-20T01:48:46.546Z,0.58
2022-10-20T01:52:47.028Z,0.58
2022-10-20T01:56:46.734Z,0.58
2022-10-20T02:00:49.948Z,0.58
2022-10-20T02:04:46.671Z,0.58
2022-10-20T02:08:47.041Z,4.54
2022-10-20T02:12:47.182Z,4.54
2022-10-20T02:16:46.617Z,4.54
2022-10-20T02:20:46.366Z,4.54
2022-10-20T02:24:46.554Z,4.54
2022-10-20T02:28:46.422Z,4.54
2022-10-20T02:32:47.253Z,4.54
2022-10-20T02:36:47.164Z,4.54
2022-10-20T02:40:47.228Z,4.54
2022-10-20T02:44:46.589Z,4.54
2022-10-20T02:48:51.237Z,4.54
2022-10-20T02:52:46.488Z,4.54
2022-10-20T02:56:50.129Z,4.54
2022-10-20T03:00:49.614Z,4.54
2022-10-20T03:04:46.694Z,4.54
2022-10-20T03:08:47.067Z,4.54
2022-10-20T03:12:49.228Z,4.54
2022-10-20T03:16:46.627Z,6.07
2022-10-20T03:20:47.139Z,6.07
2022-10-20T03:24:46.586Z,6.07
2022-10-20T03:28:46.919Z,6.07
2022-10-20T03:32:46.752Z,6.07
2022-10-20T03:36:46.944Z,6.07
2022-10-20T03:40:46.871Z,6.07
2022-10-20T03:44:46.622Z,6.07
2022-10-20T03:48:47.038Z,6.07
2022-10-20T03:52:47.761Z,6.07
2022-10-20T03:56:46.468Z,6.07
2022-10-20T04:00:47.909Z,6.07
2022-10-20T04:04:46.709Z,6.07
2022-10-20T04:08:47.230Z,6.07
2022-10-20T04:12:47.216Z,6.07
2022-10-20T04:16:47.263Z,6.07
2022-10-20T04:20:50.615Z,6.07
2022-10-20T04:24:46.243Z,6.07
2022-10-20T04:28:47.132Z,6.07
2022-10-20T04:32:46.729Z,6.07
2022-10-20T04:36:46.474Z,6.07
2022-10-20T04:40:46.620Z,6.07
2022-10-20T04:44:47.021Z,6.07
2022-10-20T04:48:46.557Z,6.07
2022-10-20T04:52:46.497Z,6.07
2022-10-20T04:56:46.665Z,6.07
2022-10-20T05:00:48.918Z,6.07
2022-10-20T05:04:46.462Z,6.07
2022-10-20T05:08:47.692Z,6.07
2022-10-20T05:12:48.623Z,6.07
2022-10-20T05:16:46.346Z,6.07
2022-10-20T05:21:08.271Z,6.07
2022-10-20T05:24:52.863Z,6.07
2022-10-20T05:28:46.464Z,6.07
2022-10-20T05:32:47.297Z,6.07
2022-10-20T05:36:50.645Z,6.07
2022-10-20T05:40:46.430Z,6.07
2022-10-20T05:44:46.465Z,6.07
2022-10-20T05:48:53.381Z,6.07
2022-10-20T05:52:47.264Z,6.07
2022-10-20T05:56:46.792Z,6.07
2022-10-20T06:00:49.343Z,6.07
2022-10-20T06:04:47.208Z,6.07
2022-10-20T06:08:46.839Z,6.07
2022-10-20T06:12:47.402Z,6.07
2022-10-20T06:16:46.389Z,6.07
2022-10-20T06:20:46.751Z,6.07
2022-10-20T06:24:46.659Z,6.07
2022-10-20T06:28:46.626Z,6.07
2022-10-20T06:32:48.754Z,6.07
2022-10-20T06:36:46.989Z,6.07
2022-10-20T06:40:47.165Z,6.07
2022-10-20T06:44:46.805Z,6.07
2022-10-20T06:48:47.030Z,6.07
2022-10-20T06:52:46.927Z,6.07
2022-10-20T06:56:46.959Z,6.07
2022-10-20T07:00:49.293Z,6.07
2022-10-20T07:04:47.096Z,6.07
2022-10-20T07:08:46.896Z,6.07
2022-10-20T07:12:47.129Z,6.07
2022-10-20T07:16:47.210Z,6.07
2022-10-20T07:20:46.606Z,6.07
2022-10-20T07:24:47.019Z,6.07
2022-10-20T07:28:46.319Z,6.07
2022-10-20T07:32:47.511Z,6.07
2022-10-20T07:36:47.634Z,6.07
2022-10-20T07:40:46.872Z,6.07
2022-10-20T07:44:46.376Z,6.07
2022-10-20T07:48:46.816Z,6.07
2022-10-20T07:52:47.109Z,6.07
2022-10-20T07:56:46.456Z,6.07
2022-10-20T08:00:49.692Z,6.07
2022-10-20T08:04:47.230Z,6.07
2022-10-20T08:08:46.528Z,6.07
2022-10-20T08:12:46.988Z,6.07
2022-10-20T08:16:51.926Z,6.07
2022-10-20T08:20:50.020Z,6.07
2022-10-20T08:24:46.914Z,20.44
2022-10-20T08:28:49.605Z,1.46
2022-10-20T08:32:47.179Z,1.34
2022-10-20T08:36:46.294Z,0.84
2022-10-20T08:40:46.637Z,0.74
2022-10-20T08:44:47.295Z,0.74
2022-10-20T08:48:46.245Z,0.68
2022-10-20T08:52:46.666Z,0.63
2022-10-20T08:56:46.505Z,0.63
2022-10-20T09:00:55.230Z,0.63
2022-10-20T09:04:47.218Z,0.58
2022-10-20T09:08:46.998Z,0.58
2022-10-20T09:12:53.557Z,0.58
2022-10-20T09:17:22.898Z,0.58
2022-10-20T09:20:46.603Z,0.58
2022-10-20T09:24:46.311Z,0.58
2022-10-20T09:29:14.359Z,0.58
2022-10-20T09:33:21.890Z,0.58
2022-10-20T09:36:47.019Z,0.58
2022-10-20T09:40:46.592Z,0.58
2022-10-20T09:44:46.712Z,0.58
2022-10-20T09:48:47.019Z,0.58
2022-10-20T09:52:48.056Z,0.58
2022-10-20T09:56:47.188Z,0.58
2022-10-20T10:01:12.148Z,0.58
2022-10-20T10:04:46.790Z,0.58
2022-10-20T10:08:47.175Z,0.58
2022-10-20T10:12:47.635Z,5.01
2022-10-20T10:16:46.529Z,5.01
2022-10-20T10:20:47.190Z,0.95
2022-10-20T10:24:46.889Z,0.95
2022-10-20T10:28:46.475Z,0.95
2022-10-20T10:32:47.235Z,0.95
2022-10-20T10:36:46.378Z,0.95
2022-10-20T10:40:47.071Z,0.95
2022-10-20T10:44:47.022Z,0.95
2022-10-20T10:48:47.132Z,0.95
2022-10-20T10:52:47.112Z,0.95
2022-10-20T10:56:47.031Z,0.95
2022-10-20T11:00:51.807Z,0.95
2022-10-20T11:04:47.258Z,0.95
2022-10-20T11:08:47.015Z,0.95
2022-10-20T11:12:47.066Z,0.95
2022-10-20T11:16:47.117Z,0.95
2022-10-20T11:20:46.756Z,0.95
2022-10-20T11:24:46.950Z,5.82
2022-10-20T11:28:46.558Z,5.82
2022-10-20T11:32:47.496Z,1
2022-10-20T11:36:47.237Z,0.74
2022-10-20T11:40:53.510Z,0.74
2022-10-20T11:44:46.960Z,0.68
2022-10-20T11:48:46.269Z,0.63
2022-10-20T11:52:46.989Z,0.63
2022-10-20T11:56:46.814Z,0.58
2022-10-20T12:00:49.347Z,0.58
2022-10-20T12:04:47.052Z,0.58
2022-10-20T12:09:14.052Z,0.58
2022-10-20T12:12:47.357Z,0.58
2022-10-20T12:16:47.146Z,0.58
2022-10-20T12:20:47.186Z,0.58
2022-10-20T12:24:47.575Z,0.58
2022-10-20T12:28:47.312Z,0.58
2022-10-20T12:32:47.697Z,0.58
2022-10-20T12:36:46.646Z,0.58
2022-10-20T12:40:46.392Z,0.58
2022-10-20T12:44:46.603Z,0.58
2022-10-20T12:48:46.835Z,0.58
2022-10-20T12:52:46.546Z,0.58
2022-10-20T12:56:46.800Z,0.58
2022-10-20T13:00:49.419Z,0.58
2022-10-20T13:04:47.241Z,0.58
2022-10-20T13:08:46.370Z,0.58
2022-10-20T13:12:46.956Z,0.53
2022-10-20T13:16:46.319Z,0.53
2022-10-20T13:20:47.218Z,0.53
2022-10-20T13:24:55.961Z,0.53
2022-10-20T13:28:47.097Z,0.53
2022-10-20T13:33:28.716Z,0.53
2022-10-20T13:36:46.705Z,0.53
2022-10-20T13:40:48.230Z,0.53
2022-10-20T13:44:54.149Z,0.53
2022-10-20T13:48:46.797Z,0.53
2022-10-20T13:52:47.573Z,0.53
2022-10-20T13:56:47.458Z,0.53
2022-10-20T14:00:48.952Z,0.53
2022-10-20T14:04:46.905Z,0.53
2022-10-20T14:08:57.555Z,0.53
2022-10-20T14:12:47.570Z,0.53
2022-10-20T14:16:46.749Z,0.53
2022-10-20T14:20:46.887Z,0.53
2022-10-20T14:24:47.110Z,0.53
2022-10-20T14:28:52.378Z,0.53
2022-10-20T14:32:46.398Z,0.53
2022-10-20T14:36:46.689Z,0.53
2022-10-20T14:40:46.894Z,0.53
2022-10-20T14:45:05.420Z,0.53
2022-10-20T14:48:46.546Z,0.53
2022-10-20T14:52:53.809Z,0.53
2022-10-20T14:56:46.910Z,0.53
2022-10-20T15:00:51.201Z,0.53
2022-10-20T15:04:47.849Z,0.53
2022-10-20T15:08:52.444Z,0.53
2022-10-20T15:12:47.595Z,0.53
2022-10-20T15:16:47.059Z,0.53
2022-10-20T15:20:47.049Z,0.53
2022-10-20T15:24:46.370Z,0.53
2022-10-20T15:28:46.625Z,0.53
2022-10-20T15:32:46.631Z,0.53
2022-10-20T15:36:53.276Z,0.53
2022-10-20T15:40:46.965Z,0.53
2022-10-20T15:44:47.208Z,0.53
2022-10-20T15:48:46.340Z,0.53
2022-10-20T15:52:47.628Z,0.53
2022-10-20T15:56:46.780Z,0.53
2022-10-20T16:00:49.661Z,0.53
2022-10-20T16:04:46.941Z,0.53
2022-10-20T16:08:46.944Z,0.53
2022-10-20T16:12:47.686Z,0.53
2022-10-20T16:16:46.589Z,0.53
2022-10-20T16:20:46.371Z,0.53
2022-10-20T16:24:46.598Z,0.53
2022-10-20T16:28:47.079Z,0.53
2022-10-20T16:32:46.947Z,0.53
2022-10-20T16:36:47.285Z,0.53
2022-10-20T16:40:46.942Z,0.53
2022-10-20T16:44:46.656Z,0.53
2022-10-20T16:48:49.292Z,0.53
2022-10-20T16:52:46.972Z,0.53
2022-10-20T16:56:52.063Z,0.53
2022-10-20T17:00:49.907Z,0.53
2022-10-20T17:04:46.786Z,0.53
2022-10-20T17:08:46.609Z,0.53
2022-10-20T17:12:46.794Z,0.53
2022-10-20T17:16:51.257Z,0.53
2022-10-20T17:20:46.352Z,0.53
2022-10-20T17:24:46.705Z,0.53
2022-10-20T17:28:46.304Z,3.64
2022-10-20T17:32:51.919Z,3.64
2022-10-20T17:36:46.236Z,0.84
2022-10-20T17:40:46.918Z,0.68
2022-10-20T17:44:46.178Z,0.68
2022-10-20T17:48:46.328Z,0.68
2022-10-20T17:52:47.558Z,0.68
2022-10-20T17:56:47.342Z,0.68
2022-10-20T18:01:29.276Z,0.68
2022-10-20T18:04:47.214Z,0.68
2022-10-20T18:08:47.371Z,0.68
2022-10-20T18:12:47.068Z,0.68
2022-10-20T18:16:46.756Z,0.68
2022-10-20T18:20:47.021Z,0.68
2022-10-20T18:24:49.092Z,0.68
2022-10-20T18:28:48.313Z,0.68
2022-10-20T18:32:47.126Z,0.68
2022-10-20T18:36:51.770Z,0.68
2022-10-20T18:40:47.177Z,0.68
2022-10-20T18:44:47.201Z,0.68
2022-10-20T18:48:46.816Z,4.31
2022-10-20T18:52:47.050Z,4.31
2022-10-20T18:56:47.135Z,4.31
2022-10-20T19:00:49.382Z,4.31
2022-10-20T19:04:47.280Z,4.31
2022-10-20T19:08:47.012Z,4.31
2022-10-20T19:12:50.610Z,4.31
2022-10-20T19:16:46.690Z,4.31
2022-10-20T19:20:47.020Z,4.31
2022-10-20T19:24:46.831Z,4.31
2022-10-20T19:28:46.805Z,4.31
2022-10-20T19:32:52.698Z,4.31
2022-10-20T19:36:46.489Z,4.31
2022-10-20T19:40:50.978Z,4.31
2022-10-20T19:44:47.177Z,4.31
2022-10-20T19:48:47.133Z,4.31
2022-10-20T19:52:47.412Z,4.31
2022-10-20T19:56:46.576Z,4.31
2022-10-20T20:00:46.622Z,4.31
2022-10-20T20:04:46.787Z,4.31
2022-10-20T20:08:46.697Z,4.31
2022-10-20T20:12:46.886Z,4.31
2022-10-20T20:16:52.227Z,4.31
2022-10-20T20:20:46.824Z,4.31
2022-10-20T20:24:47.200Z,4.31
2022-10-20T20:28:46.345Z,4.31
2022-10-20T20:32:49.668Z,4.31
2022-10-20T20:36:46.872Z,4.31
2022-10-20T20:40:46.979Z,4.31
2022-10-20T20:44:53.213Z,4.31
2022-10-20T20:48:46.384Z,4.31
2022-10-20T20:52:46.532Z,4.31
2022-10-20T20:56:49.569Z,4.31
2022-10-20T21:00:49.283Z,4.31
2022-10-20T21:04:52.337Z,4.31
2022-10-20T21:08:47.377Z,4.31
2022-10-20T21:12:47.016Z,4.31
2022-10-20T21:16:46.304Z,4.31
2022-10-20T21:20:47.357Z,4.31
2022-10-20T21:24:46.622Z,4.31
2022-10-20T21:28:46.498Z,4.31
2022-10-20T21:32:47.001Z,4.31
2022-10-20T21:36:47.283Z,4.31
2022-10-20T21:40:46.823Z,4.31
2022-10-20T21:44:46.235Z,4.31
2022-10-20T21:48:47.361Z,4.31
2022-10-20T21:52:47.552Z,4.31
2022-10-20T21:56:46.870Z,4.31
2022-10-20T22:00:57.843Z,4.31
2022-10-20T22:04:46.656Z,4.31
2022-10-20T22:08:46.639Z,4.31
2022-10-20T22:12:47.712Z,4.31
2022-10-20T22:16:47.172Z,4.31
2022-10-20T22:20:46.612Z,4.31
2022-10-20T22:24:47.142Z,4.31
2022-10-20T22:28:46.661Z,4.31
2022-10-20T22:32:47.417Z,4.31
2022-10-20T22:36:46.412Z,4.31
2022-10-20T22:40:46.682Z,4.31
2022-10-20T22:44:46.527Z,4.31
2022-10-20T22:48:46.916Z,4.31
2022-10-20T22:52:47.051Z,4.31
2022-10-20T22:56:46.755Z,4.31
2022-10-20T23:00:49.393Z,4.31
2022-10-20T23:04:47.340Z,4.31
2022-10-20T23:08:46.751Z,4.31
2022-10-20T23:12:47.734Z,4.31
2022-10-20T23:16:47.274Z,4.31
2022-10-20T23:20:46.634Z,4.31
2022-10-20T23:24:46.558Z,4.31
2022-10-20T23:28:47.024Z,4.31
2022-10-20T23:32:47.138Z,4.31
2022-10-20T23:36:50.613Z,4.31
2022-10-20T23:40:47.213Z,4.31
2022-10-20T23:44:46.506Z,4.31
2022-10-20T23:48:46.467Z,4.31
2022-10-20T23:52:47.181Z,4.31
2022-10-20T23:56:46.652Z,4.31
